createdAt,value
2022-09-28T00:01:07.676Z,98996.81
2022-09-28T00:03:35.335Z,98994.56
2022-09-28T00:06:04.539Z,98991.88
2022-09-28T00:08:32.589Z,98983.75
2022-09-28T00:11:00.293Z,98980.50
2022-09-28T00:13:28.262Z,98981.91
2022-09-28T00:16:05.467Z,98985.41
2022-09-28T00:18:33.801Z,98988.13
2022-09-28T00:21:03.430Z,98976.25
2022-09-28T00:23:31.051Z,98987.06
2022-09-28T00:26:03.029Z,98983.75
2022-09-28T00:28:31.318Z,98976.69
2022-09-28T00:30:59.027Z,98976.38
2022-09-28T00:33:27.916Z,98973.06
2022-09-28T00:35:57.144Z,98977.31
2022-09-28T00:38:27.741Z,98968.94
2022-09-28T00:40:56.571Z,98962.03
2022-09-28T00:43:25.464Z,98955.56
2022-09-28T00:45:59.434Z,98948.50
2022-09-28T00:48:31.787Z,98954.63
2022-09-28T00:51:03.628Z,98953.78
2022-09-28T00:53:34.706Z,98947.09
2022-09-28T00:56:07.349Z,98936.75
2022-09-28T00:58:40.338Z,98944.19
2022-09-28T01:01:08.573Z,98931.25
2022-09-28T01:03:38.622Z,98935.84
2022-09-28T01:06:08.628Z,98928.78
2022-09-28T01:08:37.096Z,98933.38
2022-09-28T01:11:04.744Z,98929.47
2022-09-28T01:13:33.574Z,98937.34
2022-09-28T01:16:19.618Z,98937.69
2022-09-28T01:18:59.897Z,98920.44
2022-09-28T01:21:28.061Z,98918.47
2022-09-28T01:24:16.403Z,98916.81
2022-09-28T01:26:54.376Z,98916.44
2022-09-28T01:29:31.425Z,98917.50
2022-09-28T01:32:04.376Z,98916.19
2022-09-28T01:34:40.298Z,98914.34
2022-09-28T01:37:13.530Z,98899.31
2022-09-28T01:39:44.273Z,98899.06
2022-09-28T01:42:19.661Z,98902.38
2022-09-28T01:44:50.852Z,98900.59
2022-09-28T01:47:23.082Z,98894.16
2022-09-28T01:49:55.850Z,98893.41
2022-09-28T01:52:29.466Z,98892.13
2022-09-28T01:55:02.331Z,98884.13
2022-09-28T01:57:38.453Z,98878.25
2022-09-28T02:00:08.791Z,98874.97
2022-09-28T02:02:40.562Z,98879.53
2022-09-28T02:05:12.385Z,98880.84
2022-09-28T02:07:45.135Z,98876.84
2022-09-28T02:10:17.174Z,98875.31
2022-09-28T02:12:49.604Z,98869.91
2022-09-28T02:15:21.356Z,98865.78
2022-09-28T02:17:49.582Z,98869.44
2022-09-28T02:20:17.882Z,98867.00
2022-09-28T02:22:50.097Z,98863.19
2022-09-28T02:25:25.830Z,98866.75
2022-09-28T02:27:58.766Z,98859.44
2022-09-28T02:30:26.977Z,98860.28
2022-09-28T02:32:59.760Z,98856.50
2022-09-28T02:35:27.640Z,98849.81
2022-09-28T02:37:56.006Z,98850.41
2022-09-28T02:40:26.368Z,98859.44
2022-09-28T02:43:03.368Z,98851.09
2022-09-28T02:45:42.559Z,98850.28
2022-09-28T02:48:31.474Z,98840.88
2022-09-28T02:51:19.912Z,98842.78
2022-09-28T02:54:07.068Z,98839.00
2022-09-28T02:56:54.319Z,98841.44
2022-09-28T02:59:36.862Z,98836.28
2022-09-28T03:02:15.093Z,98833.25
2022-09-28T03:04:49.464Z,98837.00
2022-09-28T03:07:25.993Z,98828.56
2022-09-28T03:10:00.417Z,98835.13
2022-09-28T03:12:29.927Z,98831.84
2022-09-28T03:15:10.393Z,98827.84
2022-09-28T03:17:38.146Z,98830.56
2022-09-28T03:20:06.749Z,98825.38
2022-09-28T03:22:34.692Z,98837.72
2022-09-28T03:25:02.376Z,98828.56
2022-09-28T03:27:30.312Z,98831.25
2022-09-28T03:29:57.995Z,98825.84
2022-09-28T03:32:27.031Z,98828.09
2022-09-28T03:34:54.615Z,98828.09
2022-09-28T03:37:22.538Z,98820.81
2022-09-28T03:39:50.120Z,98831.03
2022-09-28T03:42:18.064Z,98813.19
2022-09-28T03:44:45.747Z,98820.22
2022-09-28T03:47:13.953Z,98819.19
2022-09-28T03:49:42.846Z,98817.28
2022-09-28T03:52:10.592Z,98814.38
2022-09-28T03:54:39.290Z,98811.41
2022-09-28T03:57:07.335Z,98815.88
2022-09-28T03:59:37.325Z,98809.56
2022-09-28T04:02:06.309Z,98813.66
2022-09-28T04:04:34.236Z,98808.25
2022-09-28T04:07:05.315Z,98815.19
2022-09-28T04:09:32.910Z,98808.28
2022-09-28T04:12:04.373Z,98801.56
2022-09-28T04:14:32.237Z,98804.16
2022-09-28T04:16:59.945Z,98800.25
2022-09-28T04:19:29.018Z,98792.81
2022-09-28T04:21:56.711Z,98800.47
2022-09-28T04:24:25.608Z,98801.41
2022-09-28T04:27:13.295Z,98788.22
2022-09-28T04:29:43.045Z,98786.69
2022-09-28T04:32:11.352Z,98794.31
2022-09-28T04:34:43.898Z,98792.75
2022-09-28T04:37:12.671Z,98783.50
2022-09-28T04:39:46.185Z,98788.59
2022-09-28T04:42:15.779Z,98791.31
2022-09-28T04:44:43.447Z,98788.38
2022-09-28T04:47:11.103Z,98788.13
2022-09-28T04:49:38.794Z,98781.22
2022-09-28T04:52:07.363Z,98784.97
2022-09-28T04:54:35.319Z,98781.69
2022-09-28T04:57:05.970Z,98782.75
2022-09-28T04:59:33.790Z,98781.47
2022-09-28T05:02:01.367Z,98786.25
2022-09-28T05:04:29.134Z,98779.00
2022-09-28T05:06:56.799Z,98779.81
2022-09-28T05:09:24.659Z,98780.06
2022-09-28T05:11:53.038Z,98774.53
2022-09-28T05:14:22.724Z,98780.28
2022-09-28T05:16:50.529Z,98778.28
2022-09-28T05:19:18.361Z,98778.53
2022-09-28T05:21:46.941Z,98785.47
2022-09-28T05:24:14.618Z,98778.78
2022-09-28T05:26:42.242Z,98775.59
2022-09-28T05:29:09.948Z,98778.91
2022-09-28T05:31:39.058Z,98777.69
2022-09-28T05:34:06.903Z,98782.97
2022-09-28T05:36:34.565Z,98775.78
2022-09-28T05:39:03.831Z,98770.97
2022-09-28T05:41:31.712Z,98773.19
2022-09-28T05:43:59.622Z,98778.09
2022-09-28T05:46:27.487Z,98774.09
2022-09-28T05:48:56.743Z,98780.91
2022-09-28T05:51:25.447Z,98774.69
2022-09-28T05:53:55.572Z,98773.84
2022-09-28T05:56:25.813Z,98777.13
2022-09-28T05:58:53.522Z,98777.72
2022-09-28T06:01:21.606Z,98771.47
2022-09-28T06:03:49.279Z,98778.28
2022-09-28T06:06:18.461Z,98777.47
2022-09-28T06:08:48.274Z,98777.13
2022-09-28T06:11:15.970Z,98780.09
2022-09-28T06:13:43.636Z,98779.50
2022-09-28T06:16:15.806Z,98781.38
2022-09-28T06:18:43.473Z,98778.47
2022-09-28T06:21:11.290Z,98785.06
2022-09-28T06:23:41.036Z,98779.31
2022-09-28T06:26:09.705Z,98780.97
2022-09-28T06:28:37.449Z,98785.22
2022-09-28T06:31:05.430Z,98788.41
2022-09-28T06:33:33.270Z,98791.25
2022-09-28T06:36:00.968Z,98790.88
2022-09-28T06:38:28.673Z,98791.38
2022-09-28T06:40:58.969Z,98792.53
2022-09-28T06:43:32.145Z,98797.44
2022-09-28T06:46:02.783Z,98792.88
2022-09-28T06:51:17.180Z,98809.41
2022-09-28T06:53:44.765Z,98803.22
2022-09-28T06:56:13.703Z,98810.97
2022-09-28T06:58:41.343Z,98801.00
2022-09-28T07:01:11.967Z,98805.06
2022-09-28T07:03:40.782Z,98806.72
2022-09-28T07:06:12.281Z,98806.59
2022-09-28T07:08:40.896Z,98810.38
2022-09-28T07:11:09.170Z,98810.97
2022-09-28T07:13:53.441Z,98810.38
2022-09-28T07:16:26.425Z,98816.38
2022-09-28T07:18:54.623Z,98818.00
2022-09-28T07:21:29.821Z,98823.41
2022-09-28T07:23:58.388Z,98822.38
2022-09-28T07:26:26.589Z,98832.09
2022-09-28T07:28:56.023Z,98821.63
2022-09-28T07:31:25.330Z,98829.38
2022-09-28T07:33:53.815Z,98834.78
2022-09-28T07:36:22.586Z,98828.94
2022-09-28T07:38:50.424Z,98837.84
2022-09-28T07:41:22.302Z,98841.84
2022-09-28T07:43:50.723Z,98843.75
2022-09-28T07:46:21.271Z,98844.44
2022-09-28T07:48:51.586Z,98855.25
2022-09-28T07:51:20.295Z,98848.09
2022-09-28T07:53:47.975Z,98858.06
2022-09-28T07:56:17.354Z,98865.34
2022-09-28T07:58:44.949Z,98870.75
2022-09-28T08:01:14.871Z,98873.22
2022-09-28T08:03:45.219Z,98877.34
2022-09-28T08:06:14.518Z,98878.50
2022-09-28T08:08:44.585Z,98881.81
2022-09-28T08:11:13.575Z,98883.41
2022-09-28T08:13:41.228Z,98885.44
2022-09-28T08:16:08.855Z,98884.84
2022-09-28T08:18:36.818Z,98895.66
2022-09-28T08:21:24.842Z,98898.00
2022-09-28T08:23:53.887Z,98906.44
2022-09-28T08:26:21.668Z,98905.50
2022-09-28T08:28:49.291Z,98900.47
2022-09-28T08:31:16.981Z,98911.41
2022-09-28T08:33:44.950Z,98911.63
2022-09-28T08:36:13.952Z,98914.66
2022-09-28T08:38:41.862Z,98912.22
2022-09-28T08:41:17.794Z,98910.69
2022-09-28T08:44:15.030Z,98914.53
2022-09-28T08:46:46.483Z,98914.66
2022-09-28T08:49:27.227Z,98917.47
2022-09-28T08:52:01.889Z,98922.44
2022-09-28T08:54:39.587Z,98923.72
2022-09-28T08:57:13.377Z,98925.84
2022-09-28T08:59:47.814Z,98927.84
2022-09-28T09:02:20.182Z,98931.09
2022-09-28T09:07:58.560Z,98939.34
2022-09-28T09:10:43.160Z,98930.50
2022-09-28T09:13:34.578Z,98940.13
2022-09-28T09:16:12.308Z,98944.00
2022-09-28T09:18:45.330Z,98938.50
2022-09-28T09:21:17.228Z,98939.06
2022-09-28T09:23:55.684Z,98942.69
2022-09-28T09:26:36.204Z,98946.25
2022-09-28T09:29:16.979Z,98945.66
2022-09-28T09:32:03.513Z,98952.59
2022-09-28T09:34:47.763Z,98961.06
2022-09-28T09:37:31.011Z,98953.53
2022-09-28T09:43:18.850Z,98954.22
2022-09-28T09:46:03.717Z,98963.75
2022-09-28T09:48:37.926Z,98968.66
2022-09-28T09:51:14.467Z,98962.69
2022-09-28T09:53:47.186Z,98969.47
2022-09-28T09:56:20.933Z,98965.28
2022-09-28T09:58:54.604Z,98972.19
2022-09-28T10:01:28.634Z,98973.28
2022-09-28T10:03:58.878Z,98976.91
2022-09-28T10:06:34.586Z,98980.53
2022-09-28T10:09:05.828Z,98979.81
2022-09-28T10:11:39.491Z,98974.06
2022-09-28T10:14:08.101Z,98982.06
2022-09-28T10:16:37.151Z,98979.97
2022-09-28T10:19:04.777Z,98984.66
2022-09-28T10:21:37.471Z,98983.50
2022-09-28T10:24:05.258Z,98997.00
2022-09-28T10:26:38.558Z,98995.59
2022-09-28T10:29:14.873Z,99000.44
2022-09-28T10:31:44.280Z,99004.47
2022-09-28T10:34:14.981Z,99007.38
2022-09-28T10:36:50.807Z,99011.16
2022-09-28T10:39:29.274Z,99016.19
2022-09-28T10:42:00.059Z,99010.19
2022-09-28T10:44:28.255Z,99010.09
2022-09-28T10:47:01.826Z,99015.25
2022-09-28T10:49:36.431Z,99016.44
2022-09-28T10:52:04.576Z,99016.44
2022-09-28T10:54:32.860Z,99016.56
2022-09-28T10:57:02.021Z,99015.03
2022-09-28T10:59:40.755Z,99006.91
2022-09-28T11:02:21.693Z,99015.47
2022-09-28T11:04:53.307Z,99009.59
2022-09-28T11:07:25.031Z,99020.44
2022-09-28T11:09:54.502Z,99018.28
2022-09-28T11:12:26.021Z,99016.56
2022-09-28T11:14:59.480Z,99024.53
2022-09-28T11:17:29.730Z,99024.91
2022-09-28T11:19:59.240Z,99013.09
2022-09-28T11:22:32.268Z,99016.72
2022-09-28T11:25:20.228Z,99017.19
2022-09-28T11:27:59.718Z,99013.53
2022-09-28T11:30:30.187Z,99015.81
2022-09-28T11:33:04.116Z,99016.06
2022-09-28T11:35:45.041Z,99017.59
2022-09-28T11:38:33.447Z,99018.28
2022-09-28T11:41:18.240Z,99029.59
2022-09-28T11:44:00.271Z,99028.19
2022-09-28T11:46:39.357Z,99036.88
2022-09-28T11:49:30.638Z,99020.94
2022-09-28T11:52:04.779Z,99020.19
2022-09-28T11:54:41.389Z,99029.34
2022-09-28T11:57:19.508Z,99032.16
2022-09-28T11:59:57.872Z,99026.13
2022-09-28T12:02:30.063Z,99031.78
2022-09-28T12:05:15.828Z,99033.94
2022-09-28T12:07:50.103Z,99030.25
2022-09-28T12:10:22.277Z,99035.75
2022-09-28T12:12:56.533Z,99035.28
2022-09-28T12:15:38.173Z,99041.03
2022-09-28T12:18:22.293Z,99041.38
2022-09-28T12:20:55.653Z,99032.66
2022-09-28T12:23:30.391Z,99037.88
2022-09-28T12:26:02.849Z,99038.28
2022-09-28T12:28:39.167Z,99034.50
2022-09-28T12:31:15.858Z,99039.91
2022-09-28T12:33:47.244Z,99038.47
2022-09-28T12:36:30.379Z,99042.91
2022-09-28T12:39:27.086Z,99043.00
2022-09-28T12:42:14.446Z,99040.94
2022-09-28T12:45:09.048Z,99040.72
2022-09-28T12:48:07.791Z,99036.22
2022-09-28T12:50:54.547Z,99040.81
2022-09-28T12:53:45.325Z,99036.19
2022-09-28T12:56:21.617Z,99042.84
2022-09-28T12:59:05.486Z,99041.53
2022-09-28T13:01:49.582Z,99048.34
2022-09-28T13:04:43.037Z,99045.88
2022-09-28T13:07:17.970Z,99044.41
2022-09-28T13:09:54.645Z,99047.69
2022-09-28T13:12:33.340Z,99049.97
2022-09-28T13:15:18.860Z,99048.19
2022-09-28T13:17:54.613Z,99049.06
2022-09-28T13:20:31.166Z,99048.81
2022-09-28T13:23:12.524Z,99052.28
2022-09-28T13:25:44.981Z,99053.00
2022-09-28T13:28:16.470Z,99046.09
2022-09-28T13:30:45.850Z,99045.53
2022-09-28T13:33:20.885Z,99052.59
2022-09-28T13:35:50.209Z,99062.94
2022-09-28T13:38:54.675Z,99059.81
2022-09-28T13:41:31.711Z,99060.31
2022-09-28T13:44:25.619Z,99062.50
2022-09-28T13:47:08.523Z,99061.78
2022-09-28T13:49:45.483Z,99062.69
2022-09-28T13:52:29.938Z,99062.34
2022-09-28T13:55:14.149Z,99071.88
2022-09-28T13:57:49.468Z,99068.34
2022-09-28T14:00:24.678Z,99067.78
2022-09-28T14:02:58.931Z,99068.34
2022-09-28T14:05:38.166Z,99072.47
2022-09-28T14:08:28.880Z,99080.84
2022-09-28T14:10:57.568Z,99077.19
2022-09-28T14:13:59.288Z,99082.25
2022-09-28T14:16:31.054Z,99077.16
2022-09-28T14:19:02.397Z,99078.88
2022-09-28T14:22:10.384Z,99076.59
2022-09-28T14:25:06.389Z,99083.16
2022-09-28T14:27:51.508Z,99090.13
2022-09-28T14:30:25.620Z,99090.13
2022-09-28T14:32:56.708Z,99093.56
2022-09-28T14:35:32.378Z,99097.09
2022-09-28T14:38:22.296Z,99100.03
2022-09-28T14:41:17.537Z,99092.50
2022-09-28T14:43:59.905Z,99101.59
2022-09-28T14:46:36.730Z,99099.03
2022-09-28T14:49:06.982Z,99095.66
2022-09-28T14:51:46.077Z,99096.72
2022-09-28T14:54:18.909Z,99096.81
2022-09-28T14:57:09.232Z,99095.00
2022-09-28T14:59:43.504Z,99095.84
2022-09-28T15:02:20.147Z,99097.16
2022-09-28T15:04:51.623Z,99089.19
2022-09-28T15:07:22.290Z,99088.34
2022-09-28T15:09:51.648Z,99092.94
2022-09-28T15:12:26.900Z,99098.00
2022-09-28T15:14:57.074Z,99091.53
2022-09-28T15:17:28.193Z,99100.34
2022-09-28T15:20:12.800Z,99103.13
2022-09-28T15:22:46.453Z,99101.28
2022-09-28T15:25:19.946Z,99102.69
2022-09-28T15:27:53.977Z,99107.94
2022-09-28T15:30:28.134Z,99112.06
2022-09-28T15:33:17.691Z,99118.38
2022-09-28T15:35:47.700Z,99119.44
2022-09-28T15:38:18.001Z,99115.44
2022-09-28T15:40:47.368Z,99113.53
2022-09-28T15:43:27.109Z,99116.75
2022-09-28T15:46:02.590Z,99119.19
2022-09-28T15:48:32.589Z,99124.72
2022-09-28T15:51:06.124Z,99123.41
2022-09-28T15:53:34.505Z,99122.66
2022-09-28T15:56:09.895Z,99126.66
2022-09-28T15:58:40.309Z,99133.97
2022-09-28T16:01:36.884Z,99127.63
2022-09-28T16:04:41.079Z,99127.28
2022-09-28T16:07:20.484Z,99132.25
2022-09-28T16:09:59.946Z,99133.03
2022-09-28T16:12:32.126Z,99133.53
2022-09-28T16:15:05.529Z,99137.06
2022-09-28T16:17:35.255Z,99133.78
2022-09-28T16:20:19.258Z,99140.81
2022-09-28T16:22:47.847Z,99138.97
2022-09-28T16:25:20.338Z,99138.47
2022-09-28T16:27:48.315Z,99146.34
2022-09-28T16:30:24.362Z,99137.97
2022-09-28T16:32:56.271Z,99144.72
2022-09-28T16:35:29.312Z,99145.03
2022-09-28T16:38:00.127Z,99143.19
2022-09-28T16:40:28.817Z,99147.28
2022-09-28T16:43:01.311Z,99149.41
2022-09-28T16:45:30.750Z,99150.72
2022-09-28T16:47:59.843Z,99156.03
2022-09-28T16:50:27.516Z,99163.09
2022-09-28T16:53:18.596Z,99160.78
2022-09-28T16:55:49.144Z,99164.19
2022-09-28T16:58:17.004Z,99162.53
2022-09-28T17:00:46.084Z,99168.09
2022-09-28T17:03:15.784Z,99163.75
2022-09-28T17:05:44.119Z,99170.22
2022-09-28T17:08:15.589Z,99166.47
2022-09-28T17:11:09.731Z,99163.97
2022-09-28T17:13:36.102Z,99171.66
2022-09-28T17:16:08.414Z,99177.09
2022-09-28T17:18:37.832Z,99182.00
2022-09-28T17:21:10.818Z,99181.78
2022-09-28T17:23:39.022Z,99175.28
2022-09-28T17:26:07.220Z,99177.66
2022-09-28T17:28:36.711Z,99183.91
2022-09-28T17:31:07.976Z,99185.22
2022-09-28T17:33:35.718Z,99193.78
2022-09-28T17:36:04.661Z,99190.41
2022-09-28T17:38:34.525Z,99196.88
2022-09-28T17:41:02.295Z,99207.69
2022-09-28T17:43:30.210Z,99209.84
2022-09-28T17:45:58.105Z,99205.47
2022-09-28T17:48:27.799Z,99217.47
2022-09-28T17:50:55.562Z,99214.75
2022-09-28T17:53:23.245Z,99219.81
2022-09-28T17:55:51.380Z,99221.34
2022-09-28T17:58:21.062Z,99221.59
2022-09-28T18:00:51.139Z,99221.47
2022-09-28T18:03:21.072Z,99221.72
2022-09-28T18:05:59.054Z,99222.09
2022-09-28T18:08:26.838Z,99222.28
2022-09-28T18:10:56.839Z,99226.31
2022-09-28T18:13:24.741Z,99233.84
2022-09-28T18:15:52.723Z,99226.19
2022-09-28T18:18:20.891Z,99235.59
2022-09-28T18:20:50.305Z,99240.66
2022-09-28T18:23:18.292Z,99228.53
2022-09-28T18:25:47.367Z,99234.19
2022-09-28T18:28:15.832Z,99237.47
2022-09-28T18:30:45.548Z,99233.16
2022-09-28T18:33:14.815Z,99236.44
2022-09-28T18:35:50.673Z,99238.56
2022-09-28T18:38:20.218Z,99237.16
2022-09-28T18:40:48.499Z,99242.31
2022-09-28T18:43:16.722Z,99245.59
2022-09-28T18:45:44.660Z,99250.19
2022-09-28T18:48:12.477Z,99251.84
2022-09-28T18:50:42.689Z,99254.56
2022-09-28T18:53:13.409Z,99257.72
2022-09-28T18:55:44.511Z,99254.19
2022-09-28T18:58:12.861Z,99255.63
2022-09-28T19:00:42.414Z,99257.97
2022-09-28T19:03:14.281Z,99263.25
2022-09-28T19:05:42.942Z,99266.34
2022-09-28T19:08:11.684Z,99269.72
2022-09-28T19:10:39.462Z,99266.44
2022-09-28T19:13:08.535Z,99268.56
2022-09-28T19:15:36.337Z,99276.22
2022-09-28T19:18:04.229Z,99272.09
2022-09-28T19:20:33.617Z,99271.75
2022-09-28T19:23:01.532Z,99270.09
2022-09-28T19:25:29.416Z,99273.50
2022-09-28T19:27:57.828Z,99273.13
2022-09-28T19:30:27.022Z,99267.03
2022-09-28T19:32:54.790Z,99276.19
2022-09-28T19:35:22.674Z,99266.91
2022-09-28T19:37:51.330Z,99266.41
2022-09-28T19:40:19.366Z,99270.63
2022-09-28T19:42:47.141Z,99275.94
2022-09-28T19:45:14.931Z,99275.22
2022-09-28T19:47:44.110Z,99276.88
2022-09-28T19:50:11.972Z,99278.91
2022-09-28T19:52:39.706Z,99281.00
2022-09-28T19:55:08.444Z,99277.63
2022-09-28T19:57:36.247Z,99281.13
2022-09-28T20:00:08.045Z,99287.03
2022-09-28T20:02:36.113Z,99289.13
2022-09-28T20:05:05.872Z,99283.13
2022-09-28T20:07:34.693Z,99287.13
2022-09-28T20:10:02.398Z,99286.28
2022-09-28T20:12:30.160Z,99285.47
2022-09-28T20:14:58.187Z,99280.63
2022-09-28T20:17:26.094Z,99284.66
2022-09-28T20:19:55.932Z,99292.88
2022-09-28T20:22:25.131Z,99293.25
2022-09-28T20:24:52.855Z,99296.78
2022-09-28T20:27:25.496Z,99292.19
2022-09-28T20:29:54.202Z,99286.78
2022-09-28T20:32:22.079Z,99289.25
2022-09-28T20:34:49.724Z,99294.66
2022-09-28T20:37:17.861Z,99294.66
2022-09-28T20:39:47.298Z,99297.59
2022-09-28T20:42:15.469Z,99298.66
2022-09-28T20:44:43.434Z,99291.47
2022-09-28T20:47:11.549Z,99291.69
2022-09-28T20:49:39.218Z,99293.81
2022-09-28T20:52:06.876Z,99304.66
2022-09-28T20:54:34.509Z,99301.34
2022-09-28T20:57:17.213Z,99311.34
2022-09-28T20:59:45.133Z,99305.56
2022-09-28T21:02:13.753Z,99303.91
2022-09-28T21:04:41.767Z,99302.25
2022-09-28T21:07:09.946Z,99301.19
2022-09-28T21:09:38.669Z,99302.25
2022-09-28T21:12:09.130Z,99310.16
2022-09-28T21:14:36.854Z,99316.38
2022-09-28T21:17:04.618Z,99313.06
2022-09-28T21:19:32.331Z,99321.44
2022-09-28T21:22:00.048Z,99322.28
2022-09-28T21:24:27.683Z,99313.53
2022-09-28T21:26:55.918Z,99326.84
2022-09-28T21:29:25.001Z,99330.81
2022-09-28T21:31:52.677Z,99326.25
2022-09-28T21:34:21.894Z,99329.78
2022-09-28T21:36:52.450Z,99334.94
2022-09-28T21:39:21.042Z,99329.78
2022-09-28T21:41:51.128Z,99333.53
2022-09-28T21:44:18.928Z,99330.81
2022-09-28T21:46:48.249Z,99333.53
2022-09-28T21:49:16.019Z,99329.19
2022-09-28T21:51:46.885Z,99335.88
2022-09-28T21:54:14.898Z,99338.22
2022-09-28T21:56:42.666Z,99339.03
2022-09-28T21:59:10.369Z,99339.88
2022-09-28T22:01:38.082Z,99332.34
2022-09-28T22:04:07.169Z,99335.06
2022-09-28T22:06:35.312Z,99334.00
2022-09-28T22:09:03.064Z,99334.81
2022-09-28T22:11:30.858Z,99339.19
2022-09-28T22:13:59.894Z,99333.19
2022-09-28T22:16:29.940Z,99338.38
2022-09-28T22:19:00.425Z,99346.91
2022-09-28T22:21:31.703Z,99337.75
2022-09-28T22:24:01.331Z,99343.16
2022-09-28T22:26:31.585Z,99348.94
2022-09-28T22:29:00.728Z,99348.13
2022-09-28T22:31:31.329Z,99349.41
2022-09-28T22:33:59.714Z,99346.09
2022-09-28T22:36:29.477Z,99346.91
2022-09-28T22:38:58.281Z,99345.63
2022-09-28T22:41:26.518Z,99344.81
2022-09-28T22:43:55.493Z,99344.97
2022-09-28T22:46:24.949Z,99341.22
2022-09-28T22:48:57.288Z,99348.25
2022-09-28T22:51:26.925Z,99345.78
2022-09-28T22:53:56.403Z,99344.34
2022-09-28T22:56:24.635Z,99353.53
2022-09-28T22:58:52.547Z,99349.31
2022-09-28T23:01:22.283Z,99343.91
2022-09-28T23:03:51.169Z,99349.75
2022-09-28T23:06:21.139Z,99346.00
2022-09-28T23:08:50.443Z,99350.94
2022-09-28T23:11:19.968Z,99348.84
2022-09-28T23:13:50.309Z,99350.50
2022-09-28T23:16:18.187Z,99348.84
2022-09-28T23:18:46.071Z,99346.16
2022-09-28T23:21:16.052Z,99343.91
2022-09-28T23:23:44.028Z,99340.38
2022-09-28T23:26:13.282Z,99344.34
2022-09-28T23:28:42.433Z,99341.50
2022-09-28T23:31:11.540Z,99341.38
2022-09-28T23:33:39.313Z,99349.34
2022-09-28T23:36:07.638Z,99345.44
2022-09-28T23:38:35.681Z,99345.06
2022-09-28T23:41:03.421Z,99338.81
2022-09-28T23:43:31.078Z,99346.94
2022-09-28T23:46:00.231Z,99346.13
2022-09-28T23:48:28.010Z,99341.16
2022-09-28T23:50:55.779Z,99349.28
2022-09-28T23:53:24.688Z,99347.63
2022-09-28T23:55:52.642Z,99346.81
2022-09-28T23:58:20.474Z,99347.84
